Time;durP1;ratioP1;P1;durP2;ratioP2;P2;SDS_P1;SDS_P2;PMS_P1;PMS_P2;Temp;Humidity;BMP_temperature;BMP_pressure;BME280_temperature;BME280_humidity;BME280_pressure;Samples;Min_cycle;Max_cycle;Signal;HPM_P1;HPM_P2
2023/12/21 00:01:00;;;;;;;0.00;0.00;;;;;;;5.50;100.00;147565.19;4979737;28;20228;-55
2023/12/21 00:03:26;;;;;;;0.00;0.00;;;;;;;5.43;100.00;147550.28;4977634;28;20241;-53
2023/12/21 00:05:53;;;;;;;0.00;0.00;;;;;;;5.41;100.00;147545.31;4981400;28;20605;-55
2023/12/21 00:08:21;;;;;;;0.03;0.03;;;;;;;5.46;100.00;147557.72;4978345;28;20226;-56
2023/12/21 00:10:48;;;;;;;0.00;0.00;;;;;;;5.46;100.00;147556.50;4980841;28;20228;-56
2023/12/21 00:13:14;;;;;;;0.00;0.00;;;;;;;5.44;100.00;147551.53;4977442;28;20240;-55
2023/12/21 00:15:41;;;;;;;0.00;0.00;;;;;;;5.42;100.00;147547.81;4981149;28;20777;-56
2023/12/21 00:18:09;;;;;;;0.00;0.00;;;;;;;5.39;100.00;147539.13;4977663;28;20226;-55
2023/12/21 00:20:35;;;;;;;0.00;0.00;;;;;;;5.39;100.00;147540.34;4982069;28;20233;-52
2023/12/21 00:23:02;;;;;;;0.00;0.00;;;;;;;5.38;100.00;147536.66;4981041;28;20231;-58
2023/12/21 00:25:29;;;;;;;0.00;0.00;;;;;;;5.32;100.00;147522.97;4977618;28;20233;-56
2023/12/21 00:27:56;;;;;;;0.00;0.00;;;;;;;5.25;100.00;147505.66;4979161;28;20228;-56
2023/12/21 00:30:22;;;;;;;0.00;0.00;;;;;;;5.25;100.00;147505.66;4978363;28;20221;-54
2023/12/21 00:32:49;;;;;;;0.00;0.00;;;;;;;5.27;100.00;147511.84;4981184;28;20226;-55
2023/12/21 00:35:17;;;;;;;0.00;0.00;;;;;;;5.27;100.00;147510.63;4978102;28;20221;-54
2023/12/21 00:37:44;;;;;;;0.00;0.00;;;;;;;5.30;100.00;147519.28;4981132;28;20575;-55
2023/12/21 00:40:12;;;;;;;0.00;0.00;;;;;;;5.37;100.00;147535.38;4978810;28;20224;-55
2023/12/21 00:42:41;;;;;;;0.00;0.00;;;;;;;5.34;100.00;147527.94;4983777;28;20241;-56
2023/12/21 00:45:09;;;;;;;0.00;0.00;;;;;;;5.39;100.00;147539.13;4979517;28;20307;-54
2023/12/21 00:47:35;;;;;;;0.00;0.00;;;;;;;5.38;100.00;147537.88;4980697;28;20225;-57
2023/12/21 00:50:02;;;;;;;0.00;0.00;;;;;;;5.37;100.00;147534.16;4981945;28;20225;-55
2023/12/21 00:52:30;;;;;;;0.00;0.00;;;;;;;5.44;100.00;147551.53;4973942;28;20241;-56
2023/12/21 00:54:56;;;;;;;0.00;0.00;;;;;;;5.44;100.00;147551.53;4980263;28;20226;-56
2023/12/21 00:57:23;;;;;;;0.00;0.00;;;;;;;5.49;100.00;147562.69;4977552;28;20590;-54
2023/12/21 00:59:50;;;;;;;0.00;0.00;;;;;;;5.47;100.00;147560.22;4980375;28;20230;-54
2023/12/21 01:02:17;;;;;;;0.00;0.00;;;;;;;5.53;100.00;147572.63;4975618;28;20222;-56
2023/12/21 01:04:44;;;;;;;0.00;0.00;;;;;;;5.58;100.00;147585.03;4981369;28;20304;-55
2023/12/21 01:07:11;;;;;;;0.00;0.00;;;;;;;5.59;100.00;147588.78;4977928;28;20252;-53
2023/12/21 01:09:39;;;;;;;0.00;0.00;;;;;;;5.53;100.00;147573.88;4980291;28;20229;-57
2023/12/21 01:12:06;;;;;;;0.00;0.00;;;;;;;5.58;100.00;147586.31;4976011;28;20840;-56
2023/12/21 01:14:33;;;;;;;0.00;0.00;;;;;;;5.59;100.00;147587.53;4979712;28;20636;-54
2023/12/21 01:17:00;;;;;;;0.00;0.00;;;;;;;5.61;100.00;147592.47;4980714;28;20225;-56
2023/12/21 01:19:27;;;;;;;0.07;0.07;;;;;;;5.63;100.00;147597.44;4974496;28;20299;-56
2023/12/21 01:21:53;;;;;;;0.00;0.00;;;;;;;5.61;100.00;147593.75;4978956;28;20320;-55
2023/12/21 01:24:20;;;;;;;0.00;0.00;;;;;;;5.58;100.00;147585.03;4975761;28;20717;-56
2023/12/21 01:26:48;;;;;;;0.00;0.00;;;;;;;5.54;100.00;147575.09;4978679;28;20225;-56
2023/12/21 01:29:13;;;;;;;0.00;0.00;;;;;;;5.51;100.00;147567.66;4979577;28;20229;-55
2023/12/21 01:31:40;;;;;;;0.03;0.03;;;;;;;5.51;100.00;147568.94;4977861;28;20241;-55
2023/12/21 01:34:07;;;;;;;0.00;0.00;;;;;;;5.52;100.00;147570.13;4976602;28;20730;-56
2023/12/21 01:36:32;;;;;;;0.00;0.00;;;;;;;5.45;100.00;147555.25;4980883;28;20232;-55
2023/12/21 01:38:59;;;;;;;0.00;0.00;;;;;;;5.45;100.00;147555.25;4980697;28;20229;-57
2023/12/21 01:41:25;;;;;;;0.00;0.00;;;;;;;5.46;100.00;147557.72;4977312;28;20738;-56
2023/12/21 01:43:54;;;;;;;0.00;0.00;;;;;;;5.49;100.00;147562.69;4979773;28;20582;-56
2023/12/21 01:46:23;;;;;;;0.00;0.00;;;;;;;5.53;100.00;147572.63;4974546;28;20233;-55
2023/12/21 01:48:51;;;;;;;0.00;0.00;;;;;;;5.53;100.00;147572.63;4976389;28;20225;-57
2023/12/21 01:51:19;;;;;;;0.00;0.00;;;;;;;5.52;100.00;147570.13;4976188;28;20233;-56
2023/12/21 01:53:47;;;;;;;0.00;0.00;;;;;;;5.58;100.00;147586.31;4979854;28;20317;-54
2023/12/21 01:56:14;;;;;;;0.00;0.00;;;;;;;5.57;100.00;147582.56;4974524;28;20233;-55
2023/12/21 01:58:40;;;;;;;0.00;0.00;;;;;;;5.57;100.00;147582.56;4980148;28;20237;-55
2023/12/21 02:01:09;;;;;;;0.10;0.10;;;;;;;5.62;100.00;147594.97;4975679;28;20315;-56
2023/12/21 02:03:35;;;;;;;0.00;0.00;;;;;;;5.64;100.00;147599.94;4978252;28;20301;-57
2023/12/21 02:06:02;;;;;;;0.00;0.00;;;;;;;5.65;100.00;147601.19;4980087;28;20221;-56
2023/12/21 02:08:29;;;;;;;0.00;0.00;;;;;;;5.63;100.00;147596.22;4975999;28;20237;-55
2023/12/21 02:10:57;;;;;;;0.00;0.00;;;;;;;5.59;100.00;147587.53;4977897;28;20226;-54
2023/12/21 02:13:24;;;;;;;0.00;0.00;;;;;;;5.60;100.00;147591.28;4976637;28;20232;-54
2023/12/21 02:15:52;;;;;;;0.00;0.00;;;;;;;5.61;100.00;147593.75;4981484;28;20577;-56
2023/12/21 02:18:21;;;;;;;0.00;0.00;;;;;;;5.62;100.00;147594.97;4975585;28;20213;-56
2023/12/21 02:20:50;;;;;;;0.00;0.00;;;;;;;5.65;100.00;147602.41;4978155;28;20238;-57
2023/12/21 02:23:19;;;;;;;0.00;0.00;;;;;;;5.61;100.00;147592.47;4975565;28;20232;-54
2023/12/21 02:25:47;;;;;;;0.00;0.00;;;;;;;5.64;100.00;147598.72;4981520;28;20249;-54
2023/12/21 02:28:14;;;;;;;0.00;0.00;;;;;;;5.64;100.00;147598.72;4971506;28;20224;-56
2023/12/21 02:30:40;;;;;;;0.00;0.00;;;;;;;5.61;100.00;147592.47;4978233;28;20233;-55
2023/12/21 02:33:07;;;;;;;0.00;0.00;;;;;;;5.66;100.00;147604.91;4977832;28;20217;-57
2023/12/21 02:35:33;;;;;;;0.00;0.00;;;;;;;5.62;100.00;147594.97;4981271;28;20577;-55
2023/12/21 02:38:00;;;;;;;0.00;0.00;;;;;;;5.64;100.00;147598.72;4979865;28;20233;-57
2023/12/21 02:40:27;;;;;;;0.00;0.00;;;;;;;5.60;100.00;147590.00;4975030;28;20225;-57
2023/12/21 02:42:54;;;;;;;0.00;0.00;;;;;;;5.60;100.00;147590.00;4978362;28;20226;-56
2023/12/21 02:45:21;;;;;;;0.00;0.00;;;;;;;5.62;100.00;147594.97;4974320;28;20393;-57
2023/12/21 02:47:48;;;;;;;0.00;0.00;;;;;;;5.65;100.00;147602.41;4978156;28;20328;-56
2023/12/21 02:50:14;;;;;;;0.00;0.00;;;;;;;5.70;100.00;147614.84;4975019;28;20555;-57
2023/12/21 02:52:41;;;;;;;0.00;0.00;;;;;;;5.73;100.00;147622.28;4975938;28;20573;-53
2023/12/21 02:55:08;;;;;;;0.00;0.00;;;;;;;5.69;100.00;147612.34;4976583;28;20212;-57
2023/12/21 02:57:35;;;;;;;0.00;0.00;;;;;;;5.74;100.00;147624.75;4979856;28;20217;-53
2023/12/21 03:00:03;;;;;;;0.00;0.00;;;;;;;5.80;100.00;147638.44;4975168;28;20221;-55
2023/12/21 03:02:30;;;;;;;0.00;0.00;;;;;;;5.84;100.00;147648.31;4977487;28;20236;-55
2023/12/21 03:04:56;;;;;;;0.00;0.00;;;;;;;5.86;100.00;147652.06;4979442;28;20229;-56
2023/12/21 03:07:23;;;;;;;0.00;0.00;;;;;;;5.88;100.00;147658.25;4975517;28;20221;-57
2023/12/21 03:09:49;;;;;;;0.00;0.00;;;;;;;5.92;100.00;147666.97;4978101;28;20239;-55
2023/12/21 03:12:16;;;;;;;0.00;0.00;;;;;;;5.92;100.00;147666.97;4976399;28;20700;-56
2023/12/21 03:14:42;;;;;;;0.00;0.00;;;;;;;5.93;100.00;147668.19;4976367;28;20256;-57
2023/12/21 03:17:11;;;;;;;0.00;0.00;;;;;;;5.97;100.00;147679.38;4977729;28;20244;-56
2023/12/21 03:19:37;;;;;;;0.00;0.00;;;;;;;6.04;100.00;147696.81;4980760;28;20799;-53
2023/12/21 03:22:04;;;;;;;0.00;0.00;;;;;;;6.05;100.00;147699.31;4981590;28;20237;-55
2023/12/21 03:24:32;;;;;;;0.00;0.00;;;;;;;6.05;100.00;147698.03;4979668;28;20237;-55
2023/12/21 03:26:59;;;;;;;0.00;0.00;;;;;;;6.05;100.00;147698.03;4981527;28;20741;-57
2023/12/21 03:29:25;;;;;;;0.00;0.00;;;;;;;6.07;100.00;147701.78;4977954;28;20252;-57
2023/12/21 03:31:54;;;;;;;0.00;0.00;;;;;;;6.10;100.00;147710.47;4961096;28;20307;-57
2023/12/21 03:34:22;;;;;;;0.00;0.00;;;;;;;6.10;100.00;147710.47;4981056;28;20214;-56
2023/12/21 03:36:48;;;;;;;0.00;0.00;;;;;;;6.12;100.00;147714.19;4982656;28;20241;-56
2023/12/21 03:39:15;;;;;;;0.00;0.00;;;;;;;6.18;100.00;147729.09;4977692;28;20222;-53
2023/12/21 03:41:41;;;;;;;0.00;0.00;;;;;;;6.13;100.00;147716.69;4983649;28;20260;-56
2023/12/21 03:44:08;;;;;;;0.00;0.00;;;;;;;6.15;100.00;147721.66;4981806;28;20221;-54
2023/12/21 03:46:34;;;;;;;0.00;0.00;;;;;;;6.14;100.00;147719.16;4982453;28;20226;-55
2023/12/21 03:49:01;;;;;;;0.00;0.00;;;;;;;6.08;100.00;147704.28;4980414;28;20226;-56
2023/12/21 03:51:29;;;;;;;0.00;0.00;;;;;;;6.09;100.00;147706.75;4977464;28;20245;-56
2023/12/21 03:53:56;;;;;;;0.00;0.00;;;;;;;6.08;100.00;147705.50;4981754;28;20345;-56
2023/12/21 03:56:22;;;;;;;0.00;0.00;;;;;;;6.12;100.00;147715.41;4977445;28;20237;-55
2023/12/21 03:58:49;;;;;;;0.00;0.00;;;;;;;6.14;100.00;147720.38;4982005;28;20241;-56
2023/12/21 04:01:24;;;;;;;0.00;0.00;;;;;;;6.09;100.00;147707.97;4977948;28;20229;-54
2023/12/21 04:03:50;;;;;;;0.00;0.00;;;;;;;6.16;100.00;147725.34;4981039;28;20220;-54
2023/12/21 04:06:17;;;;;;;0.00;0.00;;;;;;;6.10;100.00;147709.25;4976827;28;20218;-54
2023/12/21 04:08:45;;;;;;;0.00;0.00;;;;;;;6.15;100.00;147721.66;4981617;28;20233;-55
2023/12/21 04:11:11;;;;;;;0.00;0.00;;;;;;;6.17;100.00;147726.63;4977594;28;20700;-55
2023/12/21 04:13:38;;;;;;;0.00;0.00;;;;;;;6.10;100.00;147709.25;4978602;28;20241;-56
2023/12/21 04:16:06;;;;;;;0.00;0.00;;;;;;;6.13;100.00;147716.69;4979851;28;20269;-56
2023/12/21 04:18:33;;;;;;;0.00;0.00;;;;;;;6.14;100.00;147719.16;4979828;28;20716;-55
2023/12/21 04:20:59;;;;;;;0.00;0.00;;;;;;;6.08;100.00;147705.50;4980660;28;20351;-55
2023/12/21 04:23:26;;;;;;;0.00;0.00;;;;;;;6.08;100.00;147704.28;4980448;28;20252;-56
2023/12/21 04:25:54;;;;;;;0.00;0.00;;;;;;;6.10;100.00;147710.47;4980528;28;20245;-56
2023/12/21 04:28:20;;;;;;;0.00;0.00;;;;;;;6.16;100.00;147724.13;4975330;28;20590;-55
2023/12/21 04:33:24;;;;;;;0.00;0.00;;;;;;;6.08;100.00;147704.28;4998778;28;20216;-64
2023/12/21 04:35:51;;;;;;;0.00;0.00;;;;;;;6.05;100.00;147699.31;5005425;28;20591;-64
2023/12/21 04:38:17;;;;;;;0.00;0.00;;;;;;;6.12;100.00;147715.41;4978219;28;20225;-64
2023/12/21 04:40:44;;;;;;;0.00;0.00;;;;;;;6.10;100.00;147710.47;4998249;28;20224;-64
2023/12/21 04:43:12;;;;;;;0.00;0.00;;;;;;;6.15;100.00;147721.66;4995182;28;20227;-64
2023/12/21 04:45:39;;;;;;;0.00;0.00;;;;;;;6.15;100.00;147721.66;5004528;28;20240;-64
2023/12/21 04:48:05;;;;;;;0.00;0.00;;;;;;;6.16;100.00;147724.13;5003866;28;20220;-64
2023/12/21 04:50:32;;;;;;;0.00;0.00;;;;;;;6.11;100.00;147711.72;5006686;28;20232;-64
2023/12/21 04:52:59;;;;;;;0.00;0.00;;;;;;;6.11;100.00;147711.72;5005963;28;20557;-64
2023/12/21 04:55:26;;;;;;;0.00;0.00;;;;;;;6.09;100.00;147706.75;5003268;28;20232;-64
2023/12/21 04:57:52;;;;;;;0.00;0.00;;;;;;;6.10;100.00;147709.25;5006265;28;20323;-64
2023/12/21 05:00:20;;;;;;;0.00;0.00;;;;;;;6.08;100.00;147704.28;5002821;28;20232;-64
2023/12/21 05:02:47;;;;;;;0.00;0.00;;;;;;;6.11;100.00;147712.94;5006201;28;20251;-64
2023/12/21 05:05:13;;;;;;;0.00;0.00;;;;;;;6.11;100.00;147712.94;5003421;28;20228;-64
2023/12/21 05:07:40;;;;;;;0.00;0.00;;;;;;;6.15;100.00;147722.88;5006486;28;20232;-64
2023/12/21 05:10:07;;;;;;;0.00;0.00;;;;;;;6.21;100.00;147736.56;5003078;28;20233;-64
2023/12/21 05:12:34;;;;;;;0.00;0.00;;;;;;;6.25;100.00;147745.22;5005437;28;20248;-64
2023/12/21 05:15:00;;;;;;;0.00;0.00;;;;;;;6.23;100.00;147741.53;5005544;28;20229;-64
2023/12/21 05:17:28;;;;;;;0.00;0.00;;;;;;;6.29;100.00;147755.16;5003129;28;20235;-64
2023/12/21 05:19:55;;;;;;;0.00;0.00;;;;;;;6.30;100.00;147758.91;5006110;28;20708;-64
2023/12/21 05:22:22;;;;;;;0.00;0.00;;;;;;;6.28;100.00;147753.94;5002726;28;20243;-64
2023/12/21 05:24:48;;;;;;;0.00;0.00;;;;;;;6.29;100.00;147755.16;4988218;28;20515;-64
2023/12/21 05:27:15;;;;;;;0.03;0.03;;;;;;;6.29;100.00;147756.44;5002824;28;20680;-63
2023/12/21 05:29:42;;;;;;;0.00;0.00;;;;;;;6.37;100.00;147773.78;5003685;28;20723;-63
2023/12/21 05:32:08;;;;;;;0.00;0.00;;;;;;;6.41;100.00;147783.72;4977727;28;20283;-64
2023/12/21 05:34:36;;;;;;;0.00;0.00;;;;;;;6.32;100.00;147762.63;4982994;28;20217;-64
2023/12/21 05:37:03;;;;;;;0.00;0.00;;;;;;;6.22;100.00;147737.78;5000013;28;20232;-64
2023/12/21 05:39:32;;;;;;;0.00;0.00;;;;;;;6.19;100.00;147731.59;4981825;28;20229;-64
2023/12/21 05:41:58;;;;;;;0.00;0.00;;;;;;;6.24;100.00;147744.00;5001350;28;20236;-64
2023/12/21 05:44:25;;;;;;;0.00;0.00;;;;;;;6.25;100.00;147745.22;5000966;28;20236;-64
2023/12/21 05:46:52;;;;;;;0.00;0.00;;;;;;;6.26;100.00;147747.72;5003432;28;20221;-65
2023/12/21 05:49:18;;;;;;;0.00;0.00;;;;;;;6.29;100.00;147755.16;5001605;28;20220;-64
2023/12/21 05:51:48;;;;;;;0.00;0.00;;;;;;;6.42;100.00;147786.19;5003754;28;20248;-64
2023/12/21 05:54:14;;;;;;;0.00;0.00;;;;;;;6.47;100.00;147798.59;5001312;28;20248;-64
2023/12/21 05:56:42;;;;;;;0.00;0.00;;;;;;;6.40;100.00;147781.22;5002933;28;20228;-64
2023/12/21 05:59:10;;;;;;;0.00;0.00;;;;;;;6.35;100.00;147771.34;5002074;28;20680;-64
2023/12/21 06:01:37;;;;;;;0.00;0.00;;;;;;;6.34;100.00;147767.59;5004009;28;20237;-65
2023/12/21 06:04:03;;;;;;;0.00;0.00;;;;;;;6.27;100.00;147751.47;5004026;28;20235;-65
2023/12/21 06:06:30;;;;;;;0.00;0.00;;;;;;;6.23;100.00;147741.53;4985358;28;20239;-64
2023/12/21 06:08:58;;;;;;;0.00;0.00;;;;;;;6.20;100.00;147734.06;5004734;28;20227;-64
2023/12/21 06:11:25;;;;;;;0.00;0.00;;;;;;;6.11;100.00;147711.72;5001392;28;20248;-64
2023/12/21 06:13:51;;;;;;;0.00;0.00;;;;;;;6.13;100.00;147716.69;5002154;28;20220;-64
2023/12/21 06:16:18;;;;;;;0.00;0.00;;;;;;;6.10;100.00;147709.25;5001122;28;20227;-64
2023/12/21 06:18:45;;;;;;;0.00;0.00;;;;;;;6.14;100.00;147719.16;5004458;28;20236;-65
2023/12/21 06:21:12;;;;;;;0.00;0.00;;;;;;;6.11;100.00;147712.94;5001917;28;20245;-65
2023/12/21 06:23:38;;;;;;;0.00;0.00;;;;;;;6.12;100.00;147715.41;5004023;28;20224;-64
2023/12/21 06:26:06;;;;;;;0.00;0.00;;;;;;;6.24;100.00;147744.00;5002129;28;20228;-64
2023/12/21 06:28:33;;;;;;;0.00;0.00;;;;;;;6.44;100.00;147792.44;5002979;28;20227;-64
2023/12/21 06:31:00;;;;;;;0.00;0.00;;;;;;;6.50;100.00;147807.31;5003539;28;20224;-64
2023/12/21 06:33:26;;;;;;;0.00;0.00;;;;;;;6.58;100.00;147824.72;5000342;28;20235;-64
2023/12/21 06:35:53;;;;;;;0.00;0.00;;;;;;;6.59;100.00;147827.19;5002786;28;20240;-64
2023/12/21 06:38:20;;;;;;;0.00;0.00;;;;;;;6.75;100.00;147865.69;5001125;28;20214;-64
2023/12/21 06:40:46;;;;;;;0.00;0.00;;;;;;;6.87;100.00;147895.50;5003559;28;20220;-64
2023/12/21 06:43:14;;;;;;;0.00;0.00;;;;;;;6.90;100.00;147901.69;5000141;28;20302;-64
2023/12/21 06:45:41;;;;;;;0.00;0.00;;;;;;;6.90;100.00;147901.69;5004268;28;20235;-64
2023/12/21 06:48:08;;;;;;;0.00;0.00;;;;;;;6.90;100.00;147902.97;5001717;28;20235;-64
2023/12/21 06:50:34;;;;;;;0.00;0.00;;;;;;;6.88;100.00;147898.00;5002757;28;21018;-64
2023/12/21 06:53:01;;;;;;;0.00;0.00;;;;;;;6.89;100.00;147900.47;5002978;28;20240;-64
2023/12/21 06:55:28;;;;;;;0.00;0.00;;;;;;;6.90;100.00;147902.97;5001001;28;20235;-64
2023/12/21 06:57:54;;;;;;;0.00;0.00;;;;;;;6.90;100.00;147902.97;5001784;28;20228;-64
2023/12/21 07:00:23;;;;;;;0.00;0.00;;;;;;;6.91;100.00;147905.44;5000442;28;20225;-64
2023/12/21 07:02:50;;;;;;;0.07;0.07;;;;;;;6.97;100.00;147919.09;5003679;28;20298;-63
2023/12/21 07:05:16;;;;;;;0.00;0.00;;;;;;;6.99;100.00;147922.84;4982758;28;20220;-63
2023/12/21 07:07:43;;;;;;;0.00;0.00;;;;;;;6.95;100.00;147914.13;5001785;28;20228;-63
2023/12/21 07:10:10;;;;;;;0.00;0.00;;;;;;;6.96;100.00;147915.38;4981809;28;20224;-63
2023/12/21 07:12:37;;;;;;;0.00;0.00;;;;;;;6.97;100.00;147917.88;5002524;28;20245;-63
2023/12/21 07:15:04;;;;;;;0.00;0.00;;;;;;;6.97;100.00;147919.09;5002732;28;20239;-63
2023/12/21 07:17:32;;;;;;;0.00;0.00;;;;;;;7.04;100.00;147936.47;4998114;28;20236;-63
2023/12/21 07:19:59;;;;;;;0.00;0.00;;;;;;;7.04;100.00;147936.47;5002671;28;20228;-63
2023/12/21 07:22:25;;;;;;;0.07;0.07;;;;;;;6.94;100.00;147912.91;5001133;28;20678;-63
2023/12/21 07:24:52;;;;;;;0.00;0.00;;;;;;;6.94;100.00;147912.91;4985875;28;20238;-63
2023/12/21 07:27:18;;;;;;;0.00;0.00;;;;;;;6.86;100.00;147891.81;5001080;28;20704;-63
2023/12/21 07:29:45;;;;;;;0.00;0.00;;;;;;;6.95;100.00;147914.13;5003439;28;20224;-63
2023/12/21 07:32:12;;;;;;;0.00;0.00;;;;;;;6.96;100.00;147915.38;4997703;28;20235;-63
2023/12/21 07:34:39;;;;;;;0.00;0.00;;;;;;;6.96;100.00;147915.38;5003401;28;20624;-63
2023/12/21 07:37:07;;;;;;;0.00;0.00;;;;;;;6.99;100.00;147922.84;5001255;28;20216;-63
2023/12/21 07:39:34;;;;;;;0.00;0.00;;;;;;;7.05;100.00;147937.75;5003774;28;20262;-63
2023/12/21 07:42:00;;;;;;;0.00;0.00;;;;;;;7.11;100.00;147952.66;5003396;28;20246;-63
2023/12/21 07:44:27;;;;;;;0.00;0.00;;;;;;;7.09;100.00;147948.91;5000276;28;20240;-63
2023/12/21 07:46:54;;;;;;;0.00;0.00;;;;;;;7.11;100.00;147951.41;4985887;28;20241;-63
2023/12/21 07:49:21;;;;;;;0.00;0.00;;;;;;;7.20;100.00;147975.03;4982432;28;20279;-63
2023/12/21 07:51:49;;;;;;;0.00;0.00;;;;;;;7.23;100.00;147981.22;5001482;28;20236;-63
2023/12/21 07:54:15;;;;;;;0.00;0.00;;;;;;;7.22;100.00;147978.75;4999769;28;20220;-63
2023/12/21 07:56:42;;;;;;;0.00;0.00;;;;;;;7.21;100.00;147977.53;5002801;28;20237;-63
2023/12/21 07:59:08;;;;;;;0.00;0.00;;;;;;;7.22;100.00;147978.75;5000671;28;20238;-63
2023/12/21 08:01:35;;;;;;;0.00;0.00;;;;;;;7.20;100.00;147973.78;5003802;28;20240;-63
2023/12/21 08:04:02;;;;;;;0.00;0.00;;;;;;;7.21;100.00;147977.53;5006888;28;20235;-63
2023/12/21 08:06:29;;;;;;;0.00;0.00;;;;;;;7.19;100.00;147971.28;5004415;28;20701;-63
2023/12/21 08:08:56;;;;;;;0.00;0.00;;;;;;;7.14;100.00;147958.84;5005949;28;20651;-63
2023/12/21 08:11:23;;;;;;;0.00;0.00;;;;;;;7.06;100.00;147941.47;5002768;28;20232;-64
2023/12/21 08:13:51;;;;;;;0.00;0.00;;;;;;;7.08;100.00;147945.22;5004451;28;20229;-65
2023/12/21 08:16:18;;;;;;;0.00;0.00;;;;;;;7.07;100.00;147943.94;5003554;28;20216;-64
2023/12/21 08:18:44;;;;;;;0.00;0.00;;;;;;;7.09;100.00;147947.69;5005573;28;20314;-64
2023/12/21 08:21:11;;;;;;;0.00;0.00;;;;;;;7.11;100.00;147951.41;5004228;28;20303;-64
2023/12/21 08:23:38;;;;;;;0.00;0.00;;;;;;;7.12;100.00;147953.88;4995160;28;20314;-64
2023/12/21 08:26:07;;;;;;;0.00;0.00;;;;;;;7.14;100.00;147960.13;5004602;28;20213;-64
2023/12/21 08:28:34;;;;;;;0.00;0.00;;;;;;;7.15;100.00;147961.34;5003743;28;20635;-65
2023/12/21 08:31:01;;;;;;;0.00;0.00;;;;;;;7.13;100.00;147957.63;5005392;28;20247;-65
2023/12/21 08:33:27;;;;;;;0.00;0.00;;;;;;;7.15;100.00;147961.34;5002536;28;20264;-65
2023/12/21 08:35:54;;;;;;;0.00;0.00;;;;;;;7.17;100.00;147967.56;5004938;28;20224;-65
2023/12/21 08:38:21;;;;;;;0.00;0.00;;;;;;;7.17;100.00;147967.56;5003471;28;20228;-65
2023/12/21 08:40:48;;;;;;;0.00;0.00;;;;;;;7.16;100.00;147965.09;5006012;28;20322;-65
2023/12/21 08:43:16;;;;;;;0.00;0.00;;;;;;;7.10;100.00;147950.19;5003145;28;20286;-64
2023/12/21 08:45:42;;;;;;;0.00;0.00;;;;;;;7.12;100.00;147955.16;5006366;28;20229;-64
2023/12/21 08:48:09;;;;;;;0.00;0.00;;;;;;;7.07;100.00;147943.94;5003029;28;20289;-64
2023/12/21 08:50:35;;;;;;;0.00;0.00;;;;;;;7.08;100.00;147946.44;5006457;28;20232;-64
2023/12/21 08:53:02;;;;;;;0.00;0.00;;;;;;;7.08;100.00;147945.22;5004821;28;20220;-64
2023/12/21 08:55:29;;;;;;;0.00;0.00;;;;;;;7.08;100.00;147945.22;5003449;28;20225;-64
2023/12/21 08:57:56;;;;;;;0.00;0.00;;;;;;;7.12;100.00;147953.88;5005120;28;20228;-64
2023/12/21 09:00:24;;;;;;;0.00;0.00;;;;;;;7.08;100.00;147945.22;5001500;28;20307;-64
2023/12/21 09:02:51;;;;;;;0.00;0.00;;;;;;;7.07;100.00;147943.94;5005930;28;20247;-65
2023/12/21 09:05:18;;;;;;;0.00;0.00;;;;;;;7.18;100.00;147968.78;5003546;28;20243;-64
2023/12/21 09:07:44;;;;;;;0.00;0.00;;;;;;;7.16;100.00;147965.09;5005047;28;20695;-65
2023/12/21 09:10:12;;;;;;;0.00;0.00;;;;;;;7.21;100.00;147977.53;5002911;28;20229;-65
2023/12/21 09:12:38;;;;;;;0.00;0.00;;;;;;;7.28;100.00;147992.44;4987332;28;20379;-65
2023/12/21 09:15:06;;;;;;;0.00;0.00;;;;;;;7.36;100.00;148012.31;5004927;28;20231;-65
2023/12/21 09:17:34;;;;;;;0.00;0.00;;;;;;;7.34;100.00;148007.34;5003626;28;20232;-65
2023/12/21 09:20:01;;;;;;;0.00;0.00;;;;;;;7.38;100.00;148017.28;5005565;28;20228;-65
2023/12/21 09:22:28;;;;;;;0.00;0.00;;;;;;;7.35;100.00;148009.81;5002356;28;20236;-65
2023/12/21 09:24:55;;;;;;;0.00;0.00;;;;;;;7.45;100.00;148034.63;5005551;28;20290;-65
2023/12/21 09:27:23;;;;;;;0.00;0.00;;;;;;;7.45;100.00;148034.63;5003032;28;20684;-65
2023/12/21 09:29:50;;;;;;;0.00;0.00;;;;;;;7.48;100.00;148042.09;5002618;28;20232;-65
2023/12/21 09:32:17;;;;;;;0.00;0.00;;;;;;;7.46;100.00;148037.13;5000238;28;20225;-64
2023/12/21 09:34:47;;;;;;;0.00;0.00;;;;;;;7.48;100.00;148040.88;5000937;28;20235;-64
2023/12/21 09:37:14;;;;;;;0.00;0.00;;;;;;;7.44;100.00;148030.94;5000599;28;20319;-65
2023/12/21 09:39:40;;;;;;;0.00;0.00;;;;;;;7.44;100.00;148032.16;5002154;28;20964;-65
2023/12/21 09:42:07;;;;;;;0.00;0.00;;;;;;;7.45;100.00;148034.63;5002207;28;20235;-65
2023/12/21 09:44:35;;;;;;;0.00;0.00;;;;;;;7.50;100.00;148045.84;5004310;28;20345;-65
2023/12/21 09:47:05;;;;;;;0.00;0.00;;;;;;;7.60;100.00;148070.72;5005030;28;20755;-65
2023/12/21 09:49:36;;;;;;;0.00;0.00;;;;;;;7.58;100.00;148065.75;5001429;28;20311;-65
2023/12/21 09:52:08;;;;;;;0.00;0.00;;;;;;;7.64;100.00;148080.66;5003007;28;20225;-65
2023/12/21 09:54:36;;;;;;;0.00;0.00;;;;;;;7.64;100.00;148080.66;5001916;28;20224;-65
2023/12/21 09:57:05;;;;;;;0.00;0.00;;;;;;;7.71;100.00;148096.78;5003741;28;20223;-65
2023/12/21 09:59:34;;;;;;;0.03;0.03;;;;;;;7.69;100.00;148091.81;5002366;28;20228;-65
2023/12/21 10:02:08;;;;;;;0.00;0.00;;;;;;;7.70;100.00;148093.09;5003494;28;20236;-65
2023/12/21 10:04:35;;;;;;;0.00;0.00;;;;;;;7.74;100.00;148104.25;5000888;28;20231;-65
2023/12/21 10:07:02;;;;;;;0.00;0.00;;;;;;;7.75;100.00;148106.75;5004598;28;20220;-65
2023/12/21 10:09:34;;;;;;;0.00;0.00;;;;;;;7.79;100.00;148115.47;5002742;28;20239;-65
2023/12/21 10:12:01;;;;;;;0.00;0.00;;;;;;;7.74;100.00;148104.25;5002908;28;20220;-65
2023/12/21 10:14:31;;;;;;;0.00;0.00;;;;;;;7.80;100.00;148119.16;5001912;28;20224;-65
2023/12/21 10:16:58;;;;;;;0.00;0.00;;;;;;;7.84;100.00;148127.91;4994544;28;20237;-65
2023/12/21 10:19:25;;;;;;;0.00;0.00;;;;;;;7.83;100.00;148125.41;5000475;28;20685;-65
2023/12/21 10:21:52;;;;;;;0.00;0.00;;;;;;;7.91;99.70;148144.03;5002909;28;20240;-65
2023/12/21 10:24:18;;;;;;;0.00;0.00;;;;;;;7.99;99.82;148163.94;5001323;28;20296;-65
2023/12/21 10:26:48;;;;;;;0.00;0.00;;;;;;;7.98;99.09;148161.44;4995834;28;20228;-65
2023/12/21 10:29:15;;;;;;;0.00;0.00;;;;;;;7.96;99.11;148156.47;5001224;28;20722;-65
2023/12/21 10:31:43;;;;;;;0.00;0.00;;;;;;;7.98;100.00;148162.66;5004477;28;20375;-65
2023/12/21 10:34:10;;;;;;;0.00;0.00;;;;;;;7.94;100.00;148151.50;4993438;28;20221;-65
2023/12/21 10:36:39;;;;;;;0.00;0.00;;;;;;;8.04;99.98;148176.38;5004761;28;20229;-65
2023/12/21 10:39:07;;;;;;;0.00;0.00;;;;;;;7.94;100.00;148152.75;5002896;28;20217;-65
2023/12/21 10:41:33;;;;;;;0.00;0.00;;;;;;;7.97;100.00;148160.19;5002586;28;20236;-65
2023/12/21 10:44:02;;;;;;;0.00;0.00;;;;;;;7.99;99.77;148163.94;5004176;28;20850;-65
2023/12/21 10:46:30;;;;;;;0.00;0.00;;;;;;;8.00;100.00;148166.41;5001763;28;20597;-65
2023/12/21 10:48:59;;;;;;;0.00;0.00;;;;;;;8.05;100.00;148178.84;4986322;28;20303;-65
2023/12/21 10:51:29;;;;;;;0.00;0.00;;;;;;;8.04;100.00;148176.38;5001241;28;20290;-65
2023/12/21 10:53:57;;;;;;;0.00;0.00;;;;;;;8.06;100.00;148181.34;5002691;28;20240;-65
2023/12/21 10:56:26;;;;;;;0.00;0.00;;;;;;;8.04;100.00;148176.38;5000283;28;20216;-65
2023/12/21 10:58:54;;;;;;;0.00;0.00;;;;;;;8.05;100.00;148178.84;5002285;28;20233;-65
2023/12/21 11:01:24;;;;;;;0.00;0.00;;;;;;;8.17;98.43;148207.44;5000518;28;20215;-65
2023/12/21 11:03:51;;;;;;;0.00;0.00;;;;;;;8.17;99.56;148206.22;5001220;28;20247;-65
2023/12/21 11:06:18;;;;;;;0.00;0.00;;;;;;;8.15;98.87;148201.22;5000591;28;20235;-65
2023/12/21 11:08:44;;;;;;;0.00;0.00;;;;;;;8.18;98.26;148208.69;5002495;28;20303;-65
2023/12/21 11:11:12;;;;;;;0.00;0.00;;;;;;;8.18;98.53;148209.91;4982155;28;20225;-65
2023/12/21 11:13:42;;;;;;;0.00;0.00;;;;;;;8.16;99.91;148204.94;4991085;28;20232;-65
2023/12/21 11:16:12;;;;;;;0.00;0.00;;;;;;;8.22;99.76;148219.88;4999942;28;20229;-65
2023/12/21 11:18:43;;;;;;;0.00;0.00;;;;;;;8.16;98.26;148204.94;5002320;28;20229;-65
2023/12/21 11:21:12;;;;;;;0.00;0.00;;;;;;;8.15;98.67;148201.22;4998421;28;20228;-65
2023/12/21 11:23:41;;;;;;;0.00;0.00;;;;;;;8.16;98.29;148203.72;5002943;28;20243;-65
2023/12/21 11:26:08;;;;;;;0.00;0.00;;;;;;;8.16;98.85;148203.72;5000146;28;20287;-65
2023/12/21 11:28:35;;;;;;;0.00;0.00;;;;;;;8.22;97.44;148219.88;5000479;28;20581;-65